Time;durP1;ratioP1;P1;durP2;ratioP2;P2;SDS_P1;SDS_P2;PMS_P1;PMS_P2;Temp;Humidity;BMP_temperature;BMP_pressure;BME280_temperature;BME280_humidity;BME280_pressure;Samples;Min_cycle;Max_cycle;Signal;HPM_P1;HPM_P2
2022/06/03 00:02:01;;;;;;;3.90;2.10;;;16.90;59.00;;;;;;5092162;28;20036;-60
2022/06/03 00:04:45;;;;;;;2.10;1.88;;;16.90;59.00;;;;;;5091153;28;20033;-59
2022/06/03 00:07:22;;;;;;;1.92;1.63;;;16.80;58.00;;;;;;5099093;28;20032;-60
2022/06/03 00:10:13;;;;;;;3.55;1.83;;;16.80;58.60;;;;;;5090258;28;20468;-60
2022/06/03 00:12:50;;;;;;;2.42;2.00;;;16.70;58.50;;;;;;5097365;28;20020;-60
2022/06/03 00:15:24;;;;;;;3.17;1.92;;;16.70;59.00;;;;;;5103754;28;20032;-60
2022/06/03 00:18:04;;;;;;;3.15;2.03;;;16.70;58.70;;;;;;5094279;28;20027;-59
2022/06/03 00:20:42;;;;;;;8.68;2.20;;;16.60;59.30;;;;;;5097494;28;20412;-61
2022/06/03 00:23:11;;;;;;;8.38;1.85;;;16.60;58.40;;;;;;5091388;28;20032;-60
2022/06/03 00:25:59;;;;;;;3.85;2.05;;;16.50;58.70;;;;;;5097891;28;20127;-59
2022/06/03 00:28:43;;;;;;;3.03;2.00;;;16.60;59.40;;;;;;5102219;28;20109;-60
2022/06/03 00:31:30;;;;;;;6.63;2.13;;;16.50;59.00;;;;;;5093199;28;20193;-61
2022/06/03 00:34:23;;;;;;;3.35;1.80;;;16.50;58.90;;;;;;5099137;28;20468;-60
2022/06/03 00:37:18;;;;;;;2.80;2.03;;;16.50;59.50;;;;;;5107432;28;20035;-60
2022/06/03 00:40:15;;;;;;;2.13;1.92;;;16.40;59.10;;;;;;5086059;28;20048;-59
2022/06/03 00:43:13;;;;;;;2.30;2.03;;;16.40;59.50;;;;;;5098287;28;20036;-60
2022/06/03 00:45:45;;;;;;;6.28;2.20;;;16.30;59.70;;;;;;5092185;28;20100;-60
2022/06/03 00:48:40;;;;;;;3.60;1.88;;;16.30;59.20;;;;;;5094207;28;20050;-60
2022/06/03 00:51:33;;;;;;;2.40;1.77;;;16.30;60.00;;;;;;5100586;28;20054;-60
2022/06/03 00:54:08;;;;;;;2.33;1.90;;;16.20;59.70;;;;;;5101143;28;20106;-60
2022/06/03 00:57:03;;;;;;;3.15;2.17;;;16.20;59.00;;;;;;5088651;28;20043;-60
2022/06/03 00:59:58;;;;;;;;;;;16.20;60.20;;;;;;5080716;28;20094;-62
2022/06/03 01:02:52;;;;;;;1.80;1.70;;;16.20;58.90;;;;;;5092887;28;20368;-60
2022/06/03 01:05:36;;;;;;;2.38;1.98;;;16.20;59.70;;;;;;5082974;28;20043;-60
2022/06/03 01:08:09;;;;;;;2.72;2.00;;;16.10;58.80;;;;;;5094342;28;20084;-60
2022/06/03 01:10:53;;;;;;;2.50;1.80;;;16.10;59.40;;;;;;5092975;28;20035;-60
2022/06/03 01:13:33;;;;;;;4.78;1.80;;;16.10;59.50;;;;;;5096472;28;20035;-61
2022/06/03 01:16:29;;;;;;;3.97;2.03;;;16.10;59.40;;;;;;5096052;28;21079;-60
2022/06/03 01:19:14;;;;;;;2.72;2.10;;;16.00;60.30;;;;;;5093407;28;20060;-60
2022/06/03 01:22:00;;;;;;;1.77;1.67;;;16.00;59.20;;;;;;5090321;28;20033;-59
2022/06/03 01:24:47;;;;;;;3.63;1.85;;;15.90;59.90;;;;;;5098620;28;20134;-60
2022/06/03 01:27:34;;;;;;;3.47;1.90;;;15.90;60.20;;;;;;5097289;28;20053;-59
2022/06/03 01:30:24;;;;;;;2.10;1.90;;;15.90;60.70;;;;;;5093026;28;20032;-59
2022/06/03 01:33:11;;;;;;;3.35;1.90;;;15.80;60.70;;;;;;5094604;28;20088;-60
2022/06/03 01:35:56;;;;;;;3.88;2.00;;;15.80;60.70;;;;;;5097381;28;20054;-60
2022/06/03 01:38:48;;;;;;;2.15;1.95;;;15.80;59.70;;;;;;5088078;28;20036;-60
2022/06/03 01:41:43;;;;;;;3.50;2.13;;;15.70;60.70;;;;;;5089417;28;20043;-60
2022/06/03 01:44:26;;;;;;;2.70;1.88;;;15.70;60.60;;;;;;5099703;28;20035;-59
2022/06/03 01:47:16;;;;;;;2.63;1.80;;;15.70;60.50;;;;;;5100915;28;20081;-60
2022/06/03 01:49:57;;;;;;;2.22;2.03;;;15.60;60.70;;;;;;5093138;28;20031;-60
2022/06/03 01:52:29;;;;;;;2.92;2.22;;;15.60;60.30;;;;;;5105641;28;20055;-60
2022/06/03 01:55:37;;;;;;;3.42;2.20;;;15.60;60.10;;;;;;5095702;28;20060;-60
2022/06/03 01:58:24;;;;;;;3.03;2.20;;;15.60;61.30;;;;;;5076469;28;20516;-60
2022/06/03 02:01:34;;;;;;;3.80;2.20;;;15.60;61.10;;;;;;5071880;28;20619;-60
2022/06/03 02:04:18;;;;;;;3.25;1.88;;;15.50;61.40;;;;;;5075497;28;20059;-59
2022/06/03 02:07:22;;;;;;;2.45;1.98;;;15.50;61.40;;;;;;5070066;28;20039;-60
2022/06/03 02:10:00;;;;;;;2.85;2.10;;;15.50;61.50;;;;;;5056890;28;20048;-60
2022/06/03 02:13:01;;;;;;;2.38;2.10;;;15.50;60.30;;;;;;5079205;28;20041;-60
2022/06/03 02:15:48;;;;;;;3.25;2.15;;;15.40;61.30;;;;;;5079198;28;20040;-60
2022/06/03 02:18:27;;;;;;;2.83;1.90;;;15.40;60.70;;;;;;5080238;28;20069;-59
2022/06/03 02:21:05;;;;;;;3.35;2.08;;;15.40;61.20;;;;;;5074112;28;20051;-59
2022/06/03 02:23:54;;;;;;;4.07;2.15;;;15.40;61.20;;;;;;5074813;28;20056;-59
2022/06/03 02:26:43;;;;;;;3.38;2.00;;;15.30;61.70;;;;;;5079214;28;20122;-59
2022/06/03 02:32:42;;;;;;;2.53;1.70;;;15.30;61.20;;;;;;5075991;28;20090;-59
2022/06/03 02:35:23;;;;;;;8.98;1.92;;;15.30;61.40;;;;;;5089012;28;20044;-60
2022/06/03 02:38:00;;;;;;;6.72;2.30;;;15.30;61.00;;;;;;5100470;28;20023;-60
2022/06/03 02:40:51;;;;;;;2.22;1.90;;;15.20;61.30;;;;;;5097213;28;20042;-60
2022/06/03 02:43:35;;;;;;;5.15;2.17;;;15.20;61.30;;;;;;5093674;28;20028;-59
2022/06/03 02:46:20;;;;;;;2.40;2.00;;;15.20;60.80;;;;;;5107438;28;20036;-61
2022/06/03 02:48:52;;;;;;;2.63;1.90;;;15.20;60.80;;;;;;5101507;28;21562;-59
2022/06/03 02:52:08;;;;;;;2.53;2.00;;;15.10;60.90;;;;;;5104101;28;20043;-60
2022/06/03 02:54:55;;;;;;;2.60;1.88;;;15.20;62.10;;;;;;5011282;28;20049;-60
2022/06/03 02:57:44;;;;;;;4.25;1.92;;;15.10;61.40;;;;;;5014582;28;20425;-59
2022/06/03 03:00:16;;;;;;;3.20;2.25;;;15.10;61.50;;;;;;4993823;28;20125;-60
2022/06/03 03:02:47;;;;;;;2.47;2.10;;;15.10;61.20;;;;;;5010465;28;20034;-59
2022/06/03 03:05:44;;;;;;;4.93;2.35;;;15.00;61.30;;;;;;5013035;28;20077;-59
2022/06/03 03:08:34;;;;;;;2.30;1.83;;;15.00;62.50;;;;;;5016213;28;20101;-59
2022/06/03 03:11:09;;;;;;;4.65;2.00;;;15.00;62.20;;;;;;5015405;28;20122;-60
2022/06/03 03:14:12;;;;;;;3.00;2.08;;;15.00;62.30;;;;;;5013303;28;20048;-59
2022/06/03 03:16:57;;;;;;;3.53;1.83;;;15.00;62.70;;;;;;5011187;28;20045;-60
2022/06/03 03:19:25;;;;;;;3.90;1.90;;;15.00;62.10;;;;;;5019312;28;20049;-59
2022/06/03 03:22:09;;;;;;;5.35;2.08;;;15.00;61.60;;;;;;5014572;28;20038;-59
2022/06/03 03:25:11;;;;;;;2.63;2.17;;;15.00;62.70;;;;;;5009867;28;20046;-59
2022/06/03 03:28:16;;;;;;;5.15;2.20;;;15.00;62.60;;;;;;5014778;28;20034;-59
2022/06/03 03:31:16;;;;;;;2.55;2.25;;;15.00;62.80;;;;;;5050154;28;20068;-59
2022/06/03 03:34:05;;;;;;;4.75;1.75;;;15.00;62.30;;;;;;5052407;28;20089;-60
2022/06/03 03:36:48;;;;;;;2.75;2.20;;;15.00;62.40;;;;;;5050469;28;20036;-60
2022/06/03 03:39:44;;;;;;;1.95;1.85;;;15.00;62.70;;;;;;5059774;28;20036;-59
2022/06/03 03:42:28;;;;;;;2.72;2.00;;;15.00;63.10;;;;;;5057020;28;20077;-60
2022/06/03 03:45:21;;;;;;;2.83;2.10;;;14.90;62.80;;;;;;5051097;28;20068;-59
2022/06/03 03:48:23;;;;;;;3.40;1.98;;;14.90;62.40;;;;;;5062758;28;20029;-60
2022/06/03 03:51:23;;;;;;;6.40;2.10;;;14.90;62.90;;;;;;5062927;28;20031;-60
2022/06/03 03:53:48;;;;;;;2.83;1.98;;;14.90;62.90;;;;;;5063638;28;20032;-59
2022/06/03 03:56:48;;;;;;;2.95;1.98;;;14.90;62.00;;;;;;5056521;28;20037;-59
2022/06/03 03:59:44;;;;;;;3.70;1.98;;;14.90;63.00;;;;;;5068308;28;20021;-59
2022/06/03 04:02:46;;;;;;;4.45;2.05;;;14.90;63.10;;;;;;5064358;28;20068;-59
2022/06/03 04:05:31;;;;;;;5.30;1.77;;;14.90;63.40;;;;;;5055294;28;20037;-60
2022/06/03 04:08:19;;;;;;;3.90;1.98;;;14.90;63.00;;;;;;5056435;28;20031;-59
2022/06/03 04:10:59;;;;;;;5.55;2.15;;;14.90;62.60;;;;;;5053775;28;20041;-60
2022/06/03 04:13:49;;;;;;;5.45;2.40;;;14.90;63.10;;;;;;5053229;28;20035;-59
2022/06/03 04:16:45;;;;;;;2.75;2.10;;;15.00;63.20;;;;;;5052421;28;20095;-59
2022/06/03 04:19:35;;;;;;;2.47;2.20;;;15.00;63.00;;;;;;5053810;28;20136;-59
2022/06/03 04:22:27;;;;;;;2.38;2.15;;;15.00;63.50;;;;;;5062004;28;20063;-59
2022/06/03 04:25:10;;;;;;;2.35;2.15;;;15.00;63.00;;;;;;5090913;28;20500;-59
2022/06/03 04:27:40;;;;;;;5.45;2.20;;;15.00;63.00;;;;;;5086118;28;20060;-59
2022/06/03 04:30:41;;;;;;;4.22;2.35;;;15.00;62.30;;;;;;5095547;28;20123;-59
2022/06/03 04:33:12;;;;;;;3.17;2.17;;;15.00;62.70;;;;;;5079222;28;20114;-59
2022/06/03 04:36:15;;;;;;;4.18;2.17;;;15.10;62.60;;;;;;5103855;28;20088;-59
2022/06/03 04:39:05;;;;;;;2.90;2.20;;;15.10;63.60;;;;;;5088247;28;20081;-59
2022/06/03 04:42:04;;;;;;;2.42;2.22;;;15.10;63.30;;;;;;5092509;28;20028;-59
2022/06/03 04:45:03;;;;;;;2.47;2.15;;;15.20;63.70;;;;;;5096197;28;20036;-59
2022/06/03 04:48:09;;;;;;;6.43;2.25;;;15.30;63.90;;;;;;5089279;28;20016;-60
2022/06/03 04:51:06;;;;;;;3.75;2.38;;;15.40;64.40;;;;;;5100294;28;20104;-59
2022/06/03 04:53:44;;;;;;;4.30;2.47;;;15.50;64.20;;;;;;5089785;28;20100;-59
2022/06/03 04:56:29;;;;;;;3.92;2.15;;;15.70;63.40;;;;;;5090615;28;20506;-60
2022/06/03 04:59:15;;;;;;;;;;;15.80;63.30;;;;;;5090486;28;20739;-59
2022/06/03 05:01:59;;;;;;;3.03;2.00;;;15.90;63.20;;;;;;5092334;28;19926;-59
2022/06/03 05:04:42;;;;;;;4.60;2.38;;;16.10;63.00;;;;;;5090395;28;20361;-59
2022/06/03 05:07:45;;;;;;;8.15;2.40;;;16.20;62.70;;;;;;5097146;28;20038;-61
2022/06/03 05:10:30;;;;;;;2.22;2.03;;;16.30;63.00;;;;;;5091653;28;20098;-60
2022/06/03 05:13:17;;;;;;;3.65;2.53;;;16.40;62.10;;;;;;5094712;28;20032;-60
2022/06/03 05:16:07;;;;;;;4.45;2.15;;;16.40;62.30;;;;;;5095115;28;20032;-60
2022/06/03 05:18:51;;;;;;;4.20;2.50;;;16.50;62.80;;;;;;5098948;28;20039;-59
2022/06/03 05:21:45;;;;;;;5.47;2.50;;;16.70;62.80;;;;;;5096177;28;20095;-62
2022/06/03 05:24:38;;;;;;;4.40;2.80;;;16.80;63.00;;;;;;5095831;28;20452;-60
2022/06/03 05:27:41;;;;;;;5.80;2.60;;;17.00;62.70;;;;;;5021416;28;20171;-59
2022/06/03 05:30:28;;;;;;;5.32;2.47;;;17.10;62.30;;;;;;5096071;28;20043;-60
2022/06/03 05:33:12;;;;;;;3.92;2.60;;;17.30;61.90;;;;;;5094520;28;20030;-59
2022/06/03 05:36:10;;;;;;;4.40;2.50;;;17.40;61.40;;;;;;5095896;28;20032;-60
2022/06/03 05:39:14;;;;;;;4.15;2.30;;;17.60;61.50;;;;;;5093658;28;20024;-60
2022/06/03 05:44:51;;;;;;;2.85;2.42;;;17.90;61.30;;;;;;5090144;28;20040;-59
2022/06/03 05:47:49;;;;;;;4.15;2.50;;;18.00;60.60;;;;;;5104801;28;20032;-60
2022/06/03 05:50:56;;;;;;;4.68;2.58;;;18.20;60.40;;;;;;5093763;28;20040;-60
2022/06/03 05:53:48;;;;;;;7.47;2.47;;;18.40;60.50;;;;;;5094621;28;20048;-61
2022/06/03 05:56:26;;;;;;;9.98;2.60;;;18.60;59.70;;;;;;5068004;28;20442;-60
2022/06/03 05:58:59;;;;;;;7.30;2.55;;;18.80;59.50;;;;;;5096991;28;20028;-60
2022/06/03 06:01:44;;;;;;;5.38;2.85;;;19.00;59.00;;;;;;5091244;28;20094;-60
2022/06/03 06:04:16;;;;;;;10.35;2.80;;;19.10;59.00;;;;;;5091011;28;20027;-60
2022/06/03 06:07:04;;;;;;;4.70;2.63;;;19.20;58.70;;;;;;5093274;28;20099;-62
2022/06/03 06:09:45;;;;;;;19.42;2.97;;;19.30;58.30;;;;;;5090850;28;20063;-61
2022/06/03 06:12:32;;;;;;;3.35;2.65;;;19.30;57.90;;;;;;5090251;28;20023;-61
2022/06/03 06:15:10;;;;;;;9.32;2.60;;;19.40;57.40;;;;;;5095522;28;20027;-61
2022/06/03 06:17:47;;;;;;;5.80;2.40;;;19.40;57.30;;;;;;5097988;28;20075;-61
2022/06/03 06:20:27;;;;;;;4.15;2.13;;;19.40;57.00;;;;;;5095429;28;20066;-61
2022/06/03 06:23:02;;;;;;;3.17;2.03;;;19.50;57.10;;;;;;5094460;28;20027;-62
2022/06/03 06:25:42;;;;;;;4.25;2.17;;;19.60;57.20;;;;;;5090811;28;20089;-61
2022/06/03 06:28:30;;;;;;;5.80;2.53;;;19.80;56.90;;;;;;5004689;28;20077;-61
2022/06/03 06:31:16;;;;;;;4.90;2.70;;;19.90;56.90;;;;;;5096762;28;20147;-61
2022/06/03 06:34:12;;;;;;;11.32;3.13;;;20.20;56.50;;;;;;5094601;28;20023;-61
2022/06/03 06:36:56;;;;;;;4.95;3.10;;;20.40;56.20;;;;;;5099662;28;20552;-61
2022/06/03 06:39:50;;;;;;;6.35;3.00;;;20.60;55.70;;;;;;5101514;28;20770;-61
2022/06/03 06:42:30;;;;;;;3.63;3.03;;;20.80;55.50;;;;;;5049284;28;20037;-62
2022/06/03 06:45:27;;;;;;;4.88;3.10;;;20.80;55.10;;;;;;5051626;28;20028;-62
2022/06/03 06:48:08;;;;;;;6.82;3.08;;;21.00;55.10;;;;;;5054219;28;20108;-60
2022/06/03 06:50:56;;;;;;;3.42;2.47;;;21.10;54.70;;;;;;5053945;28;20036;-61
2022/06/03 06:53:35;;;;;;;2.95;2.47;;;21.20;54.40;;;;;;5056276;28;20066;-61
2022/06/03 06:56:45;;;;;;;2.97;2.30;;;21.40;54.60;;;;;;5057745;28;20025;-61
2022/06/03 06:59:34;;;;;;;8.75;2.40;;;21.50;54.30;;;;;;4992810;28;20040;-61
2022/06/03 07:02:10;;;;;;;5.20;2.45;;;21.70;54.20;;;;;;4999345;28;20150;-61
2022/06/03 07:04:41;;;;;;;3.42;2.33;;;21.80;53.70;;;;;;4992879;28;20031;-61
2022/06/03 07:07:25;;;;;;;3.85;2.50;;;22.00;53.60;;;;;;4996065;28;20034;-61
2022/06/03 07:09:56;;;;;;;2.80;2.55;;;22.10;53.40;;;;;;5000020;28;20034;-61
2022/06/03 07:12:33;;;;;;;6.38;2.70;;;22.20;53.30;;;;;;4999573;28;20112;-61
2022/06/03 07:15:08;;;;;;;4.88;2.40;;;22.30;52.70;;;;;;4991837;28;20038;-61
2022/06/03 07:20:41;;;;;;;5.80;2.25;;;22.60;52.80;;;;;;5056381;28;20156;-61
2022/06/03 07:23:29;;;;;;;3.22;2.30;;;22.70;52.60;;;;;;5056198;28;20036;-61
2022/06/03 07:26:02;;;;;;;4.03;2.72;;;22.80;52.60;;;;;;4986194;28;20574;-61
2022/06/03 07:28:48;;;;;;;3.13;2.45;;;22.90;52.50;;;;;;5050825;28;20043;-60
2022/06/03 07:31:38;;;;;;;3.92;2.25;;;23.10;52.10;;;;;;5047515;28;20047;-61
2022/06/03 07:34:17;;;;;;;4.68;2.88;;;23.20;51.90;;;;;;5092795;28;20055;-62
2022/06/03 07:37:04;;;;;;;3.03;2.25;;;23.40;51.90;;;;;;5091307;28;20029;-62
2022/06/03 07:39:36;;;;;;;5.07;2.95;;;23.50;51.70;;;;;;5097250;28;20113;-61
2022/06/03 07:42:19;;;;;;;6.45;2.78;;;23.60;51.00;;;;;;5111212;28;20032;-62
2022/06/03 07:44:54;;;;;;;3.45;2.47;;;23.70;50.30;;;;;;5094169;28;20074;-62
2022/06/03 07:47:19;;;;;;;4.82;3.00;;;23.80;51.00;;;;;;5091154;28;20028;-61
2022/06/03 07:49:56;;;;;;;5.80;3.10;;;23.90;51.20;;;;;;5098386;28;20085;-62
2022/06/03 07:52:39;;;;;;;5.55;3.03;;;24.10;51.20;;;;;;5102461;28;20036;-61
2022/06/03 07:55:16;;;;;;;3.42;2.60;;;24.20;50.80;;;;;;5103805;28;20028;-61
2022/06/03 07:57:49;;;;;;;5.22;3.15;;;24.30;50.90;;;;;;5101086;28;20115;-61
2022/06/03 08:00:18;;;;;;;6.13;2.80;;;24.50;50.80;;;;;;5096785;28;20067;-63
2022/06/03 08:02:44;;;;;;;3.92;3.20;;;24.60;51.00;;;;;;5095675;28;20608;-62
2022/06/03 08:05:20;;;;;;;3.90;2.65;;;24.70;50.80;;;;;;5098287;28;20103;-61
2022/06/03 08:10:58;;;;;;;7.13;2.83;;;24.90;50.40;;;;;;5097791;28;20047;-61
2022/06/03 08:13:51;;;;;;;6.53;2.70;;;25.00;50.80;;;;;;5101182;28;20510;-62
2022/06/03 08:16:29;;;;;;;3.95;2.38;;;25.20;49.80;;;;;;5093963;28;20051;-62
2022/06/03 08:19:16;;;;;;;3.53;2.47;;;25.20;49.50;;;;;;5096308;28;20061;-62
2022/06/03 08:21:46;;;;;;;3.42;2.55;;;25.30;50.00;;;;;;5098442;28;20437;-62
2022/06/03 08:24:17;;;;;;;6.72;2.58;;;25.40;49.70;;;;;;5092771;28;20454;-62
2022/06/03 08:26:46;;;;;;;4.28;2.88;;;25.50;49.20;;;;;;5096615;28;20346;-61
2022/06/03 08:29:17;;;;;;;4.82;2.38;;;25.60;49.20;;;;;;5096115;28;20027;-61
2022/06/03 08:31:44;;;;;;;2.70;2.20;;;25.70;49.00;;;;;;5092159;28;20114;-62
2022/06/03 08:34:19;;;;;;;3.85;2.63;;;25.80;49.10;;;;;;5094795;28;20036;-63
2022/06/03 08:36:46;;;;;;;3.90;2.40;;;25.80;49.20;;;;;;5093035;28;20747;-63
2022/06/03 08:39:19;;;;;;;3.90;2.47;;;25.90;49.20;;;;;;5093623;28;20031;-61
2022/06/03 08:41:59;;;;;;;3.47;2.20;;;26.00;48.80;;;;;;5095055;28;20025;-62
2022/06/03 08:44:42;;;;;;;4.63;2.30;;;26.10;48.90;;;;;;5099016;28;20487;-63
2022/06/03 08:47:20;;;;;;;3.33;2.20;;;26.20;49.40;;;;;;5100160;28;20083;-61
2022/06/03 08:50:00;;;;;;;3.13;2.00;;;26.30;48.50;;;;;;5090992;28;20039;-61
2022/06/03 08:52:44;;;;;;;9.40;2.33;;;26.40;48.70;;;;;;5096730;28;20025;-63
2022/06/03 08:55:25;;;;;;;;;;;26.50;48.70;;;;;;5092790;28;20038;-62
2022/06/03 08:57:55;;;;;;;4.25;2.40;;;26.60;48.00;;;;;;5097894;28;19912;-62
2022/06/03 09:00:26;;;;;;;15.02;2.45;;;26.70;48.90;;;;;;5089406;28;20544;-62
2022/06/03 09:03:08;;;;;;;2.83;2.33;;;26.80;48.50;;;;;;5087633;28;20048;-62
2022/06/03 09:05:44;;;;;;;5.47;2.20;;;27.00;47.80;;;;;;5098622;28;20107;-62
2022/06/03 09:08:12;;;;;;;6.43;1.98;;;27.10;47.90;;;;;;5094698;28;20119;-62
2022/06/03 09:10:43;;;;;;;6.03;2.30;;;27.20;48.30;;;;;;5091715;28;20032;-61
2022/06/03 09:13:25;;;;;;;4.45;1.95;;;27.30;48.00;;;;;;5110635;28;20027;-63
2022/06/03 09:15:53;;;;;;;4.72;2.25;;;27.40;47.50;;;;;;5093564;28;20075;-62
2022/06/03 09:18:27;;;;;;;2.67;1.80;;;27.60;47.70;;;;;;5101366;28;20049;-61
2022/06/03 09:21:13;;;;;;;5.93;2.45;;;27.70;47.20;;;;;;5096476;28;20048;-62
2022/06/03 09:23:47;;;;;;;2.92;2.00;;;27.80;46.30;;;;;;5094727;28;20047;-61
2022/06/03 09:26:25;;;;;;;3.15;1.80;;;27.90;47.10;;;;;;5094096;28;20103;-62
2022/06/03 09:28:53;;;;;;;1.92;1.58;;;28.00;46.90;;;;;;5095282;28;20074;-62
2022/06/03 09:31:20;;;;;;;3.50;1.52;;;28.10;47.00;;;;;;5100301;28;20016;-62
2022/06/03 09:33:46;;;;;;;3.08;1.90;;;28.20;47.00;;;;;;5094029;28;20034;-62
2022/06/03 09:36:18;;;;;;;3.00;1.90;;;28.30;46.80;;;;;;5095209;28;20031;-61
2022/06/03 09:38:51;;;;;;;2.95;2.03;;;28.40;46.80;;;;;;5101793;28;20031;-62
2022/06/03 09:41:21;;;;;;;4.20;1.92;;;28.50;47.50;;;;;;5096797;28;20044;-62
2022/06/03 09:43:50;;;;;;;4.88;1.92;;;28.60;46.20;;;;;;5096051;28;20035;-62
2022/06/03 09:46:17;;;;;;;3.30;1.58;;;28.70;46.20;;;;;;5087573;28;20024;-62
2022/06/03 09:48:43;;;;;;;2.55;1.58;;;28.70;45.60;;;;;;5087865;28;20032;-62
2022/06/03 09:54:13;;;;;;;6.20;2.13;;;28.70;45.40;;;;;;5094417;28;20055;-61
2022/06/03 09:56:41;;;;;;;7.95;2.03;;;28.70;46.00;;;;;;5099491;28;20020;-61
2022/06/03 09:59:09;;;;;;;2.92;2.00;;;28.70;46.40;;;;;;5104263;28;20032;-61
2022/06/03 10:01:35;;;;;;;3.30;1.70;;;28.80;46.30;;;;;;5093189;28;20066;-62
2022/06/03 10:04:07;;;;;;;3.35;1.70;;;28.90;45.70;;;;;;5092261;28;20027;-62
2022/06/03 10:06:51;;;;;;;3.70;2.00;;;29.00;45.10;;;;;;5097613;28;20048;-62
2022/06/03 10:17:50;;;;;;;2.45;1.50;;;29.30;45.30;;;;;;5106904;28;20046;-62
2022/06/03 10:20:18;;;;;;;2.45;1.40;;;29.40;46.00;;;;;;5101956;28;20089;-62
2022/06/03 10:22:48;;;;;;;3.20;1.83;;;29.50;45.50;;;;;;5090764;28;20028;-61
2022/06/03 10:25:15;;;;;;;2.63;1.80;;;29.60;45.10;;;;;;5105258;28;20101;-61
2022/06/03 10:27:42;;;;;;;5.80;1.65;;;29.80;44.90;;;;;;5096674;28;20032;-61
2022/06/03 10:30:08;;;;;;;2.20;1.70;;;29.90;44.70;;;;;;5111312;28;20028;-61
2022/06/03 10:32:36;;;;;;;2.55;1.45;;;29.90;44.30;;;;;;5096360;28;20032;-62
2022/06/03 10:35:16;;;;;;;2.88;1.25;;;30.10;44.10;;;;;;5099156;28;20086;-62
2022/06/03 10:37:52;;;;;;;4.22;1.10;;;30.10;42.40;;;;;;5095762;28;20023;-62
2022/06/03 10:40:21;;;;;;;2.72;1.00;;;30.20;43.50;;;;;;5094656;28;20044;-61
2022/06/03 10:42:49;;;;;;;3.22;2.40;;;30.20;43.70;;;;;;5102305;28;20028;-62
2022/06/03 10:45:15;;;;;;;2.75;1.50;;;30.40;43.70;;;;;;5104280;28;20031;-61
2022/06/03 10:47:43;;;;;;;2.85;1.20;;;30.50;43.40;;;;;;5105023;28;20019;-62
2022/06/03 10:50:27;;;;;;;2.13;1.30;;;30.60;43.20;;;;;;5104613;28;20035;-62
2022/06/03 11:01:56;;;;;;;2.42;1.20;;;31.20;42.40;;;;;;5099671;28;20089;-62
2022/06/03 11:04:39;;;;;;;2.35;1.25;;;31.30;41.90;;;;;;5096579;28;20506;-62
2022/06/03 11:07:26;;;;;;;1.95;1.10;;;31.50;40.30;;;;;;5107420;28;20089;-63
2022/06/03 11:09:57;;;;;;;1.70;1.10;;;31.50;38.80;;;;;;5094913;28;20025;-62
2022/06/03 11:12:25;;;;;;;1.58;1.02;;;31.60;40.10;;;;;;5098199;28;20024;-62
2022/06/03 11:14:51;;;;;;;1.63;1.15;;;31.50;39.50;;;;;;5102876;28;20057;-63
2022/06/03 11:17:22;;;;;;;1.58;0.95;;;31.50;39.60;;;;;;5104756;28;20035;-62
2022/06/03 11:19:52;;;;;;;1.60;1.00;;;31.40;38.80;;;;;;5099648;28;20353;-63
2022/06/03 11:22:35;;;;;;;2.55;1.20;;;31.30;39.10;;;;;;5096675;28;20059;-63
2022/06/03 11:25:11;;;;;;;1.27;0.95;;;31.20;39.10;;;;;;5099604;28;20050;-62
2022/06/03 11:27:45;;;;;;;2.38;1.30;;;31.10;39.30;;;;;;5094966;28;20035;-64
2022/06/03 11:30:23;;;;;;;5.05;1.05;;;31.10;39.80;;;;;;5101120;28;20032;-62
2022/06/03 11:32:55;;;;;;;3.33;1.17;;;31.20;41.20;;;;;;5093960;28;20564;-63
2022/06/03 11:35:37;;;;;;;1.48;1.10;;;31.40;39.90;;;;;;5097067;28;20067;-62
2022/06/03 11:38:06;;;;;;;1.20;0.93;;;31.40;39.60;;;;;;5095151;28;20115;-62
2022/06/03 11:40:37;;;;;;;3.10;1.10;;;31.60;39.60;;;;;;5095373;28;20028;-62
2022/06/03 11:43:35;;;;;;;2.67;1.00;;;31.70;39.50;;;;;;5100145;28;20949;-61
2022/06/03 11:46:13;;;;;;;4.72;0.95;;;31.80;39.70;;;;;;5100521;28;20027;-62
2022/06/03 11:48:43;;;;;;;9.95;1.60;;;31.90;39.80;;;;;;5101818;28;20028;-62
2022/06/03 11:51:11;;;;;;;1.58;1.00;;;32.10;39.70;;;;;;5104725;28;20053;-62
2022/06/03 11:53:47;;;;;;;1.73;1.00;;;32.20;39.10;;;;;;5096690;28;20077;-61
2022/06/03 11:56:16;;;;;;;4.47;1.23;;;32.30;39.70;;;;;;5096543;28;20036;-62
2022/06/03 11:59:02;;;;;;;1.80;1.17;;;32.40;39.30;;;;;;5095458;28;20119;-61
2022/06/03 12:01:40;;;;;;;5.07;1.08;;;32.60;37.90;;;;;;5094784;28;20028;-62
2022/06/03 12:04:11;;;;;;;4.50;1.10;;;32.70;37.60;;;;;;5101030;28;20024;-61
2022/06/03 12:06:55;;;;;;;2.35;1.30;;;32.70;37.40;;;;;;5097259;28;20024;-62
2022/06/03 12:09:38;;;;;;;4.18;1.35;;;32.80;37.40;;;;;;5096411;28;20092;-62
2022/06/03 12:15:30;;;;;;;1.90;1.30;;;33.00;37.30;;;;;;5091753;28;20047;-62
2022/06/03 12:18:11;;;;;;;3.90;1.60;;;33.10;36.30;;;;;;5102707;28;20100;-62
2022/06/03 12:20:52;;;;;;;6.57;1.42;;;33.00;36.40;;;;;;5095275;28;20059;-62
2022/06/03 12:23:17;;;;;;;2.97;1.30;;;32.90;36.40;;;;;;5101010;28;20606;-63
2022/06/03 12:26:03;;;;;;;3.10;1.60;;;32.80;36.70;;;;;;5103423;28;20042;-61
2022/06/03 12:28:38;;;;;;;3.28;1.30;;;32.70;36.80;;;;;;5092405;28;20034;-61
2022/06/03 12:31:08;;;;;;;5.10;1.55;;;32.50;37.30;;;;;;5102003;28;20024;-62
2022/06/03 12:33:51;;;;;;;1.85;1.38;;;32.30;37.40;;;;;;5092141;28;20071;-62
2022/06/03 12:36:35;;;;;;;1.58;1.20;;;32.20;37.10;;;;;;5097659;28;20016;-61
2022/06/03 12:39:01;;;;;;;1.17;1.00;;;32.10;38.00;;;;;;5095139;28;20036;-62
2022/06/03 12:41:45;;;;;;;2.03;1.17;;;32.00;38.50;;;;;;5091094;28;20047;-62
2022/06/03 12:44:48;;;;;;;6.95;1.20;;;31.90;38.30;;;;;;5094780;28;20043;-62
2022/06/03 12:47:43;;;;;;;2.55;1.20;;;31.90;38.10;;;;;;5100478;28;20087;-62
2022/06/03 12:50:21;;;;;;;2.70;1.17;;;31.80;37.90;;;;;;5091786;28;20032;-62
2022/06/03 12:52:48;;;;;;;3.38;1.48;;;31.80;37.30;;;;;;5093579;28;20028;-62
2022/06/03 12:55:27;;;;;;;2.38;1.30;;;31.70;37.90;;;;;;5102209;28;20448;-62
2022/06/03 12:57:52;;;;;;;4.20;1.48;;;31.70;37.00;;;;;;5089826;28;20020;-62
2022/06/03 13:00:18;;;;;;;6.45;1.30;;;31.60;37.80;;;;;;5094971;28;20051;-62
2022/06/03 13:02:53;;;;;;;1.90;1.20;;;31.50;37.80;;;;;;5099894;28;20031;-62
2022/06/03 13:05:48;;;;;;;6.35;1.30;;;31.40;38.40;;;;;;5095470;28;20020;-61
2022/06/03 13:08:26;;;;;;;1.70;1.10;;;31.30;38.60;;;;;;5092449;28;20020;-62
2022/06/03 13:10:57;;;;;;;2.40;1.75;;;31.20;38.10;;;;;;5091732;28;20048;-62
2022/06/03 13:13:34;;;;;;;1.60;1.20;;;31.10;38.40;;;;;;5095261;28;20024;-61
2022/06/03 13:16:00;;;;;;;2.65;1.08;;;31.00;38.80;;;;;;5098812;28;20119;-61
2022/06/03 13:18:34;;;;;;;2.05;1.27;;;31.00;39.00;;;;;;5094851;28;20064;-61
2022/06/03 13:21:02;;;;;;;4.95;1.45;;;30.90;38.70;;;;;;5098055;28;20061;-62
2022/06/03 13:23:33;;;;;;;16.85;4.50;;;30.80;38.70;;;;;;5089440;28;20479;-62
2022/06/03 13:26:18;;;;;;;16.00;3.33;;;30.80;39.30;;;;;;5060488;28;20016;-62
2022/06/03 13:28:44;;;;;;;2.58;1.30;;;30.80;39.10;;;;;;5093578;28;20035;-62
2022/06/03 13:31:16;;;;;;;1.83;1.30;;;30.80;39.30;;;;;;5096169;28;20095;-62
2022/06/03 13:34:08;;;;;;;1.20;1.02;;;30.80;39.50;;;;;;5099684;28;20020;-62
2022/06/03 13:36:38;;;;;;;4.30;1.70;;;30.70;39.70;;;;;;5090703;28;20051;-62
2022/06/03 13:39:07;;;;;;;3.63;1.30;;;30.60;39.70;;;;;;5102739;28;20054;-62
2022/06/03 13:44:40;;;;;;;1.40;1.20;;;30.50;39.50;;;;;;5108800;28;20058;-61
2022/06/03 13:47:19;;;;;;;2.28;1.15;;;30.50;39.20;;;;;;5101648;28;20035;-62
2022/06/03 13:50:04;;;;;;;2.45;1.80;;;30.40;39.40;;;;;;5092652;28;20020;-62
2022/06/03 13:52:34;;;;;;;6.40;2.10;;;30.30;39.80;;;;;;5089116;28;20024;-63
2022/06/03 13:55:17;;;;;;;6.90;1.65;;;30.20;40.20;;;;;;5103742;28;20024;-63
2022/06/03 13:57:51;;;;;;;2.88;1.52;;;30.10;40.50;;;;;;5098576;28;20456;-64
2022/06/03 14:00:17;;;;;;;3.20;1.50;;;30.00;40.10;;;;;;5086280;28;20036;-61
2022/06/03 14:02:45;;;;;;;2.63;1.23;;;30.00;40.90;;;;;;5094573;28;20031;-61
2022/06/03 14:05:14;;;;;;;3.72;1.60;;;29.90;41.20;;;;;;5093510;28;20028;-61
2022/06/03 14:07:44;;;;;;;1.73;1.10;;;29.80;41.80;;;;;;5093356;28;20047;-62
2022/06/03 14:10:23;;;;;;;4.30;1.30;;;29.70;42.00;;;;;;5094388;28;20044;-62
2022/06/03 14:13:02;;;;;;;2.40;1.20;;;29.60;43.30;;;;;;5090707;28;20028;-61
2022/06/03 14:15:50;;;;;;;3.42;1.40;;;29.60;44.90;;;;;;5090978;28;20044;-61
2022/06/03 14:18:47;;;;;;;2.95;1.60;;;29.50;45.20;;;;;;5097144;28;20552;-61
2022/06/03 14:21:31;;;;;;;2.20;1.42;;;29.40;45.90;;;;;;5094576;28;20065;-61
2022/06/03 14:24:00;;;;;;;1.77;1.40;;;29.20;47.00;;;;;;5091247;28;20071;-61
2022/06/03 14:26:58;;;;;;;5.22;1.60;;;29.00;46.20;;;;;;5106777;28;20027;-61
2022/06/03 14:29:30;;;;;;;2.78;1.45;;;28.80;47.10;;;;;;5090111;28;20020;-62
2022/06/03 14:32:13;;;;;;;4.50;1.60;;;28.60;47.10;;;;;;5097520;28;20036;-61
2022/06/03 14:34:50;;;;;;;3.95;1.70;;;28.30;47.60;;;;;;5096486;28;20047;-62
2022/06/03 14:37:34;;;;;;;2.08;1.42;;;28.20;48.40;;;;;;5089292;28;20107;-61
2022/06/03 14:40:07;;;;;;;2.55;1.50;;;28.00;48.80;;;;;;5089984;28;20400;-61